Time;durP1;ratioP1;P1;durP2;ratioP2;P2;SDS_P1;SDS_P2;PMS_P1;PMS_P2;Temp;Humidity;BMP_temperature;BMP_pressure;BME280_temperature;BME280_humidity;BME280_pressure;Samples;Min_cycle;Max_cycle;Signal;HPM_P1;HPM_P2
2023/10/16 00:00:29;;;;;;;1.80;1.70;;;7.20;99.90;;;;;;5119673;28;20159;-77
2023/10/16 00:02:59;;;;;;;1.70;1.60;;;7.10;99.90;;;;;;5115068;28;20726;-79
2023/10/16 00:05:38;;;;;;;1.83;1.73;;;7.10;99.90;;;;;;5116389;28;20202;-77
2023/10/16 00:08:08;;;;;;;1.90;1.80;;;7.10;99.90;;;;;;5095599;28;20175;-78
2023/10/16 00:10:35;;;;;;;1.90;1.73;;;7.10;99.90;;;;;;5114142;28;20171;-77
2023/10/16 00:13:05;;;;;;;1.40;1.40;;;7.20;99.90;;;;;;5115964;28;20608;-79
2023/10/16 00:15:44;;;;;;;1.63;1.53;;;7.10;99.90;;;;;;5099201;28;20210;-78
2023/10/16 00:18:17;;;;;;;1.60;1.50;;;7.20;99.90;;;;;;5117300;28;20215;-77
2023/10/16 00:20:44;;;;;;;2.90;1.60;;;7.10;99.90;;;;;;5126972;28;20233;-79
2023/10/16 00:23:10;;;;;;;1.60;1.50;;;6.90;99.90;;;;;;5126301;28;20275;-80
2023/10/16 00:25:40;;;;;;;1.93;1.43;;;6.90;99.90;;;;;;5117534;28;20178;-79
2023/10/16 00:28:07;;;;;;;1.50;1.50;;;7.00;99.90;;;;;;5098797;28;20688;-78
2023/10/16 00:30:34;;;;;;;1.73;1.63;;;7.00;99.90;;;;;;5099965;28;20514;-79
2023/10/16 00:33:00;;;;;;;1.83;1.77;;;6.80;99.90;;;;;;5099098;28;20603;-77
2023/10/16 00:35:26;;;;;;;1.70;1.60;;;6.70;99.90;;;;;;5104724;28;20239;-75
2023/10/16 00:37:51;;;;;;;1.50;1.50;;;6.80;99.90;;;;;;5131086;28;20222;-77
2023/10/16 00:40:35;;;;;;;2.47;1.40;;;6.70;99.90;;;;;;5117754;28;20174;-78
2023/10/16 00:43:20;;;;;;;1.70;1.67;;;6.60;99.90;;;;;;5099139;28;20189;-77
2023/10/16 00:46:11;;;;;;;1.47;1.37;;;6.60;99.90;;;;;;5117294;28;20160;-78
2023/10/16 00:48:39;;;;;;;1.37;1.33;;;6.50;99.90;;;;;;5117474;28;20214;-77
2023/10/16 00:51:08;;;;;;;1.17;1.17;;;6.60;99.90;;;;;;5117137;28;20184;-78
2023/10/16 00:53:38;;;;;;;1.23;1.23;;;6.60;99.90;;;;;;5117478;28;20185;-78
2023/10/16 00:56:08;;;;;;;1.80;1.70;;;6.50;99.90;;;;;;5119808;28;20207;-77
2023/10/16 00:58:38;;;;;;;2.30;1.87;;;6.50;99.90;;;;;;5119075;28;20165;-78
2023/10/16 01:01:09;;;;;;;2.23;2.10;;;6.50;99.90;;;;;;5137587;28;20190;-75
2023/10/16 01:03:36;;;;;;;1.70;1.70;;;6.60;99.90;;;;;;5120703;28;20228;-79
2023/10/16 01:06:03;;;;;;;1.80;1.70;;;6.60;99.90;;;;;;5116849;28;20174;-77
2023/10/16 01:08:29;;;;;;;1.60;1.60;;;5.90;99.90;;;;;;5099714;28;20693;-78
2023/10/16 01:10:57;;;;;;;1.73;1.63;;;6.50;99.90;;;;;;5117891;28;20170;-80
2023/10/16 01:13:26;;;;;;;1.93;1.77;;;6.60;99.90;;;;;;5116914;28;20268;-78
2023/10/16 01:15:53;;;;;;;1.80;1.70;;;6.50;99.90;;;;;;5116881;28;20674;-78
2023/10/16 01:18:19;;;;;;;2.13;2.03;;;6.50;99.90;;;;;;5116471;28;20189;-78
2023/10/16 01:20:49;;;;;;;1.90;1.80;;;6.50;99.90;;;;;;5114912;28;20986;-79
2023/10/16 01:23:20;;;;;;;1.70;1.60;;;6.50;99.90;;;;;;5114306;28;20523;-77
2023/10/16 01:25:47;;;;;;;2.00;1.73;;;6.60;99.90;;;;;;5114901;28;20195;-79
2023/10/16 01:28:16;;;;;;;1.87;1.77;;;6.60;99.90;;;;;;5115394;28;20162;-79
2023/10/16 01:30:47;;;;;;;2.77;1.60;;;6.60;99.90;;;;;;5096697;28;20173;-80
2023/10/16 01:33:16;;;;;;;2.20;2.00;;;6.60;99.90;;;;;;5115119;28;20241;-78
2023/10/16 01:35:43;;;;;;;3.27;2.10;;;6.60;99.90;;;;;;5114973;28;20196;-80
2023/10/16 01:38:15;;;;;;;3.50;2.03;;;6.30;99.90;;;;;;5096212;28;20185;-80
2023/10/16 01:41:02;;;;;;;2.47;2.27;;;6.30;99.90;;;;;;5114835;28;20159;-79
2023/10/16 01:43:32;;;;;;;2.10;2.00;;;6.20;99.90;;;;;;5114827;28;20159;-78
2023/10/16 01:46:08;;;;;;;2.50;2.20;;;6.20;99.90;;;;;;5114811;28;20173;-80
2023/10/16 01:48:46;;;;;;;2.70;2.50;;;6.20;99.90;;;;;;5114776;28;20241;-80
2023/10/16 01:51:22;;;;;;;2.40;2.30;;;6.20;99.90;;;;;;5114566;28;20182;-78
2023/10/16 01:53:51;;;;;;;2.97;2.73;;;6.30;99.90;;;;;;5114642;28;20193;-79
2023/10/16 01:56:17;;;;;;;3.17;2.97;;;6.30;99.90;;;;;;5114133;28;20179;-80
2023/10/16 01:58:47;;;;;;;3.37;3.00;;;6.40;99.90;;;;;;5113636;28;20159;-80
2023/10/16 02:01:17;;;;;;;3.30;3.10;;;6.40;99.90;;;;;;5114319;28;20210;-77
2023/10/16 02:03:46;;;;;;;5.70;3.37;;;6.40;99.90;;;;;;5114611;28;20195;-80
2023/10/16 02:06:12;;;;;;;3.47;3.23;;;6.40;99.90;;;;;;5116665;28;20225;-79
2023/10/16 02:08:43;;;;;;;4.33;3.83;;;6.40;99.90;;;;;;5098058;28;20178;-77
2023/10/16 02:11:10;;;;;;;3.73;3.43;;;6.40;99.90;;;;;;5115309;28;20549;-80
2023/10/16 02:13:37;;;;;;;4.07;3.77;;;6.20;99.90;;;;;;5114405;28;20540;-78
2023/10/16 02:16:06;;;;;;;4.33;4.00;;;6.20;99.90;;;;;;5101944;28;20209;-75
2023/10/16 02:18:40;;;;;;;3.83;3.53;;;6.40;99.90;;;;;;5081452;28;1196042;-76
2023/10/16 02:21:13;;;;;;;4.00;3.70;;;6.50;99.90;;;;;;5120016;28;20177;-79
2023/10/16 02:23:39;;;;;;;4.53;3.70;;;6.60;99.90;;;;;;5115270;28;20166;-79
2023/10/16 02:26:06;;;;;;;3.87;3.47;;;6.60;99.90;;;;;;5121285;28;20174;-79
2023/10/16 02:28:33;;;;;;;3.53;3.27;;;6.60;99.90;;;;;;5112709;28;20170;-77
2023/10/16 02:31:16;;;;;;;4.10;3.77;;;6.60;99.90;;;;;;5122650;28;20174;-79
2023/10/16 02:33:50;;;;;;;3.70;3.47;;;6.50;99.90;;;;;;5115521;28;20213;-78
2023/10/16 02:36:18;;;;;;;3.87;3.60;;;6.50;99.90;;;;;;5116957;28;20194;-78
2023/10/16 02:38:44;;;;;;;4.93;3.90;;;6.40;99.90;;;;;;5114535;28;20203;-78
2023/10/16 02:41:11;;;;;;;3.80;3.60;;;6.30;99.90;;;;;;5115980;28;20173;-77
2023/10/16 02:43:37;;;;;;;5.80;3.80;;;6.10;99.90;;;;;;5114834;28;20165;-79
2023/10/16 02:46:04;;;;;;;4.60;4.20;;;6.10;99.90;;;;;;5114743;28;20235;-80
2023/10/16 02:48:30;;;;;;;3.87;3.57;;;6.10;99.90;;;;;;5114735;28;20166;-78
2023/10/16 02:50:59;;;;;;;5.60;3.97;;;6.00;99.90;;;;;;5117138;28;20669;-79
2023/10/16 02:53:29;;;;;;;4.10;3.80;;;5.90;99.90;;;;;;5114343;28;20534;-80
2023/10/16 02:56:05;;;;;;;3.67;3.40;;;5.80;99.90;;;;;;5114075;28;20205;-78
2023/10/16 02:58:31;;;;;;;3.87;3.57;;;5.80;99.90;;;;;;5114345;28;20593;-80
2023/10/16 03:00:59;;;;;;;4.67;3.77;;;5.70;99.90;;;;;;5115174;28;20607;-79
2023/10/16 03:03:27;;;;;;;4.23;3.30;;;5.80;99.90;;;;;;5114403;28;20164;-79
2023/10/16 03:05:56;;;;;;;4.13;3.80;;;5.70;99.90;;;;;;5114306;28;20170;-79
2023/10/16 03:08:29;;;;;;;3.97;3.23;;;6.00;99.90;;;;;;5114019;28;20165;-80
2023/10/16 03:10:56;;;;;;;4.50;4.00;;;6.10;99.90;;;;;;5114004;28;20170;-79
2023/10/16 03:13:21;;;;;;;4.33;3.93;;;6.00;99.90;;;;;;5114015;28;20698;-79
2023/10/16 03:15:47;;;;;;;4.20;3.90;;;6.10;99.90;;;;;;5114206;28;20209;-79
2023/10/16 03:18:17;;;;;;;5.40;3.60;;;6.10;99.90;;;;;;5113556;28;20173;-80
2023/10/16 03:20:45;;;;;;;4.13;3.50;;;6.30;99.90;;;;;;5113499;28;20231;-79
2023/10/16 03:23:12;;;;;;;4.83;4.13;;;6.30;99.90;;;;;;5113844;28;20162;-77
2023/10/16 03:28:14;;;;;;;4.13;3.73;;;6.30;99.90;;;;;;5114035;28;20645;-79
2023/10/16 03:30:42;;;;;;;4.60;4.20;;;6.30;99.90;;;;;;5113835;28;20232;-79
2023/10/16 03:33:08;;;;;;;4.53;4.10;;;6.40;99.90;;;;;;5114118;28;20176;-81
2023/10/16 03:35:34;;;;;;;4.00;3.70;;;6.40;99.90;;;;;;5114160;28;20210;-75
2023/10/16 03:38:10;;;;;;;4.30;4.00;;;6.50;99.90;;;;;;5112524;28;20250;-80
2023/10/16 03:40:36;;;;;;;3.70;3.50;;;6.50;99.90;;;;;;5108788;28;20184;-78
2023/10/16 03:43:02;;;;;;;4.17;3.80;;;6.50;99.90;;;;;;5114583;28;20204;-77
2023/10/16 03:45:28;;;;;;;4.90;3.93;;;6.40;99.90;;;;;;5113370;28;20167;-80
2023/10/16 03:47:58;;;;;;;5.30;4.23;;;6.40;99.90;;;;;;5113205;28;20638;-75
2023/10/16 03:50:26;;;;;;;4.63;4.23;;;6.50;99.90;;;;;;5095321;28;20248;-78
2023/10/16 03:52:55;;;;;;;4.23;3.83;;;6.60;99.90;;;;;;5095547;28;20665;-80
2023/10/16 03:55:28;;;;;;;3.73;3.53;;;6.60;99.90;;;;;;5113357;28;20289;-78
2023/10/16 03:57:55;;;;;;;4.60;4.20;;;6.50;99.90;;;;;;5114744;28;20166;-77
2023/10/16 04:00:50;;;;;;;4.07;3.60;;;6.40;99.90;;;;;;5124243;28;20261;-76
2023/10/16 04:03:19;;;;;;;4.37;3.53;;;6.20;99.90;;;;;;5096144;28;20246;-79
2023/10/16 04:05:46;;;;;;;4.03;3.73;;;6.40;99.90;;;;;;5113558;28;20177;-79
2023/10/16 04:08:22;;;;;;;4.10;3.80;;;6.30;99.90;;;;;;5118284;28;20163;-77
2023/10/16 04:10:48;;;;;;;3.97;3.67;;;6.30;99.90;;;;;;5116933;28;20158;-77
2023/10/16 04:13:18;;;;;;;3.83;3.53;;;6.20;99.90;;;;;;5116386;28;20658;-79
2023/10/16 04:26:57;;;;;;;4.80;4.07;;;6.10;99.90;;;;;;5113125;28;20192;-79
2023/10/16 04:31:57;;;;;;;4.83;4.27;;;6.30;99.90;;;;;;5113383;28;20171;-79
2023/10/16 04:50:37;;;;;;;6.83;6.03;;;6.00;99.90;;;;;;5052547;28;20185;-76
2023/10/16 05:06:11;;;;;;;6.43;5.83;;;5.80;99.90;;;;;;5073061;28;20162;-79
2023/10/16 05:16:31;;;;;;;5.70;5.20;;;5.70;99.90;;;;;;5062502;28;20212;-76
2023/10/16 05:19:03;;;;;;;6.10;4.90;;;5.80;99.90;;;;;;5061699;28;20722;-79
2023/10/16 06:14:17;;;;;;;3.47;3.23;;;5.40;99.90;;;;;;5116223;28;20220;-80
2023/10/16 06:16:54;;;;;;;3.70;3.40;;;5.30;99.90;;;;;;5097364;28;20170;-76
2023/10/16 06:19:22;;;;;;;3.47;3.27;;;5.30;99.90;;;;;;5114798;28;20298;-79
2023/10/16 06:21:52;;;;;;;3.70;3.10;;;5.30;99.90;;;;;;5115305;28;20173;-80
2023/10/16 06:24:32;;;;;;;3.77;3.47;;;8.30;99.90;;;;;;5114914;28;20183;-79
2023/10/16 06:27:01;;;;;;;3.33;3.13;;;5.30;99.90;;;;;;5097198;28;20689;-78
2023/10/16 06:29:40;;;;;;;3.40;3.10;;;5.50;99.90;;;;;;5096986;28;20219;-80
2023/10/16 06:32:49;;;;;;;3.80;3.20;;;5.30;99.90;;;;;;5115477;28;20602;-78
2023/10/16 06:34:57;;;;;;;3.60;3.03;;;5.40;99.90;;;;;;5108308;28;20258;-78
2023/10/16 06:37:24;;;;;;;4.73;3.40;;;5.40;99.90;;;;;;5116913;28;20173;-77
2023/10/16 06:39:54;;;;;;;3.50;3.20;;;5.60;99.90;;;;;;5114166;28;20619;-75
2023/10/16 06:42:21;;;;;;;2.93;2.77;;;5.70;99.90;;;;;;5116893;28;20183;-77
2023/10/16 06:44:53;;;;;;;3.57;2.73;;;5.80;99.90;;;;;;5116639;28;20181;-78
2023/10/16 06:47:35;;;;;;;3.40;3.20;;;5.80;99.90;;;;;;5103796;28;20637;-76
2023/10/16 06:50:32;;;;;;;2.90;2.70;;;5.80;99.90;;;;;;5101657;28;20187;-78
2023/10/16 06:52:51;;;;;;;3.20;3.00;;;5.90;99.90;;;;;;5119876;28;20168;-75
2023/10/16 06:55:18;;;;;;;3.80;2.60;;;5.90;99.90;;;;;;5115095;28;20252;-79
2023/10/16 06:57:44;;;;;;;2.57;2.47;;;6.00;99.90;;;;;;5114202;28;20535;-79
2023/10/16 07:00:32;;;;;;;3.03;2.83;;;5.90;99.90;;;;;;5114402;28;20649;-78
2023/10/16 07:03:09;;;;;;;3.50;3.13;;;6.00;99.90;;;;;;5115328;28;20633;-80
2023/10/16 07:05:44;;;;;;;2.50;2.40;;;6.10;99.90;;;;;;5114427;28;20619;-79
2023/10/16 07:08:11;;;;;;;2.93;2.73;;;6.00;99.90;;;;;;5115318;28;20154;-78
2023/10/16 07:10:41;;;;;;;2.60;2.40;;;6.10;99.90;;;;;;5114458;28;20534;-78
2023/10/16 07:13:10;;;;;;;2.67;2.47;;;6.00;99.90;;;;;;5114622;28;20173;-78
2023/10/16 07:15:36;;;;;;;2.60;2.10;;;6.30;99.90;;;;;;5113836;28;20207;-76
2023/10/16 07:18:05;;;;;;;2.93;2.00;;;6.00;99.90;;;;;;5114533;28;20510;-77
2023/10/16 07:20:33;;;;;;;2.33;2.23;;;6.10;99.90;;;;;;5114304;28;20708;-74
2023/10/16 07:23:09;;;;;;;2.33;2.10;;;6.20;99.90;;;;;;5118157;28;20163;-78
2023/10/16 07:25:47;;;;;;;2.60;2.50;;;6.20;99.90;;;;;;5119426;28;20200;-76
2023/10/16 07:28:15;;;;;;;2.40;2.20;;;6.20;99.90;;;;;;5124563;28;20155;-78
2023/10/16 07:30:42;;;;;;;2.03;1.90;;;6.30;99.90;;;;;;5114519;28;20176;-78
2023/10/16 07:33:20;;;;;;;2.50;2.30;;;6.50;99.90;;;;;;5114107;28;20170;-79
2023/10/16 07:35:47;;;;;;;4.20;2.40;;;6.50;99.90;;;;;;5113881;28;20228;-78
2023/10/16 07:38:19;;;;;;;2.60;2.40;;;6.60;99.90;;;;;;5113355;28;20545;-78
2023/10/16 07:40:55;;;;;;;2.20;1.97;;;6.40;99.90;;;;;;5113398;28;20176;-77
2023/10/16 07:43:26;;;;;;;2.87;2.07;;;6.30;99.90;;;;;;5113635;28;20174;-75
2023/10/16 07:46:15;;;;;;;2.40;1.97;;;6.50;99.90;;;;;;5095570;28;20243;-76
2023/10/16 07:48:45;;;;;;;2.17;2.07;;;6.50;99.90;;;;;;5114483;28;20249;-79
2023/10/16 07:51:12;;;;;;;5.33;2.00;;;6.60;99.90;;;;;;5113924;28;20579;-77
2023/10/16 07:53:38;;;;;;;2.30;2.17;;;6.70;99.90;;;;;;5115472;28;20166;-76
2023/10/16 07:59:18;;;;;;;1.83;1.73;;;6.70;99.90;;;;;;5102396;28;20168;-77
2023/10/16 08:01:57;;;;;;;1.90;1.87;;;6.80;99.90;;;;;;5115620;28;20191;-78
2023/10/16 08:06:52;;;;;;;1.47;1.47;;;6.90;99.90;;;;;;5116731;28;20214;-75
2023/10/16 08:11:58;;;;;;;4.63;2.07;;;7.00;99.90;;;;;;5116053;28;20171;-76
2023/10/16 08:14:32;;;;;;;1.90;1.80;;;7.40;99.90;;;;;;5115976;28;20209;-76
2023/10/16 08:16:58;;;;;;;3.07;2.13;;;7.20;99.90;;;;;;5116441;28;20156;-79
2023/10/16 08:19:31;;;;;;;2.00;1.90;;;7.20;99.90;;;;;;5120194;28;20217;-78
2023/10/16 08:22:02;;;;;;;2.80;2.37;;;7.50;99.90;;;;;;5115431;28;20242;-77
2023/10/16 08:24:28;;;;;;;3.13;2.63;;;7.60;99.90;;;;;;5113432;28;20181;-76
2023/10/16 08:27:08;;;;;;;2.80;2.60;;;7.60;99.90;;;;;;5114551;28;20183;-78
2023/10/16 08:29:54;;;;;;;2.73;2.53;;;7.50;99.90;;;;;;5115825;28;20168;-77
2023/10/16 08:35:09;;;;;;;2.77;2.57;;;7.80;99.90;;;;;;5118860;28;20740;-79
2023/10/16 08:37:41;;;;;;;3.57;3.27;;;8.00;99.90;;;;;;5118115;28;20176;-79
2023/10/16 08:40:19;;;;;;;3.20;2.90;;;8.00;99.90;;;;;;5117514;28;20168;-77
2023/10/16 08:43:00;;;;;;;3.43;3.20;;;8.10;99.90;;;;;;5119117;28;20164;-77
2023/10/16 08:45:29;;;;;;;5.10;3.40;;;8.10;99.90;;;;;;5117421;28;20171;-79
2023/10/16 08:47:57;;;;;;;4.23;3.80;;;8.20;99.90;;;;;;5117476;28;20173;-78
2023/10/16 08:50:40;;;;;;;5.70;4.00;;;8.20;99.90;;;;;;5099402;28;20174;-77
2023/10/16 08:53:30;;;;;;;5.77;5.10;;;8.30;99.90;;;;;;5116303;28;20372;-78
2023/10/16 08:56:03;;;;;;;5.37;4.87;;;8.20;99.90;;;;;;5115515;28;20575;-76
2023/10/16 08:58:44;;;;;;;6.70;6.10;;;8.40;99.90;;;;;;5116929;28;20188;-77
2023/10/16 09:01:13;;;;;;;11.57;6.47;;;8.50;99.90;;;;;;5117101;28;20568;-76
2023/10/16 09:03:51;;;;;;;6.40;5.80;;;8.50;99.90;;;;;;5119071;28;20183;-76
2023/10/16 09:06:23;;;;;;;8.17;6.70;;;8.60;99.90;;;;;;5119797;28;20190;-78
2023/10/16 09:08:54;;;;;;;8.50;7.37;;;8.70;99.90;;;;;;5117382;28;20165;-79
2023/10/16 09:11:20;;;;;;;7.47;6.77;;;8.70;99.90;;;;;;5123363;28;20167;-78
2023/10/16 09:13:53;;;;;;;9.27;7.07;;;8.70;99.90;;;;;;5109750;28;20178;-76
2023/10/16 09:16:24;;;;;;;8.87;7.13;;;8.60;99.90;;;;;;5138323;28;20238;-79
2023/10/16 09:18:53;;;;;;;10.57;8.30;;;8.60;99.90;;;;;;5126389;28;20218;-79
2023/10/16 09:21:27;;;;;;;8.23;7.40;;;8.80;99.90;;;;;;5120449;28;20180;-77
2023/10/16 09:23:58;;;;;;;8.37;7.57;;;8.80;99.90;;;;;;5119057;28;20205;-77
2023/10/16 09:26:28;;;;;;;7.60;6.90;;;9.00;99.90;;;;;;5117293;28;20609;-78
2023/10/16 09:28:55;;;;;;;8.23;6.93;;;9.10;99.90;;;;;;5117450;28;20190;-77
2023/10/16 09:31:24;;;;;;;9.53;7.83;;;9.10;99.90;;;;;;5117441;28;20187;-75
2023/10/16 09:33:51;;;;;;;7.83;7.07;;;9.00;99.90;;;;;;5116937;28;20181;-78
2023/10/16 09:36:18;;;;;;;9.03;6.77;;;9.10;99.90;;;;;;5120265;28;20272;-76
2023/10/16 09:38:56;;;;;;;7.43;6.73;;;9.10;99.90;;;;;;5116030;28;20219;-79
2023/10/16 09:44:07;;;;;;;7.40;6.73;;;9.30;99.90;;;;;;5116598;28;20253;-78
2023/10/16 09:46:52;;;;;;;7.60;5.87;;;9.40;99.90;;;;;;5120225;28;20172;-78
2023/10/16 09:49:27;;;;;;;6.37;5.77;;;9.40;99.90;;;;;;5120817;28;20187;-79
2023/10/16 09:51:57;;;;;;;7.73;6.47;;;9.50;99.90;;;;;;5127660;28;20175;-78
2023/10/16 09:54:25;;;;;;;6.83;6.23;;;9.50;99.90;;;;;;5117771;28;20206;-79
2023/10/16 09:56:59;;;;;;;7.93;5.77;;;9.60;99.90;;;;;;5117047;28;20210;-76
2023/10/16 09:59:34;;;;;;;5.30;4.90;;;9.60;99.90;;;;;;5107446;28;20169;-76
2023/10/16 10:02:09;;;;;;;5.63;5.13;;;9.60;99.90;;;;;;5119710;28;20498;-78
2023/10/16 10:04:38;;;;;;;5.43;4.93;;;9.60;99.90;;;;;;5116208;28;20216;-78
2023/10/16 10:07:11;;;;;;;5.07;4.40;;;9.10;99.90;;;;;;5097822;28;20519;-76
2023/10/16 10:09:42;;;;;;;4.03;3.73;;;9.70;99.90;;;;;;5116776;28;20233;-77
2023/10/16 10:12:28;;;;;;;4.97;4.57;;;9.70;99.90;;;;;;5097637;28;20186;-79
2023/10/16 10:15:29;;;;;;;4.33;3.93;;;10.80;99.90;;;;;;5115839;28;20203;-77
2023/10/16 10:18:01;;;;;;;5.30;3.70;;;9.80;99.90;;;;;;5097664;28;20179;-75
2023/10/16 10:20:32;;;;;;;3.40;3.20;;;9.70;99.90;;;;;;5115309;28;20256;-76
2023/10/16 10:23:06;;;;;;;3.67;3.37;;;9.80;99.90;;;;;;5115825;28;20171;-77
2023/10/16 10:25:37;;;;;;;2.67;2.47;;;9.80;99.90;;;;;;5115600;28;20519;-77
2023/10/16 10:28:10;;;;;;;2.67;2.47;;;9.80;99.90;;;;;;5116263;28;20552;-76
2023/10/16 10:30:44;;;;;;;3.13;2.80;;;9.90;99.90;;;;;;5102732;28;20201;-76
2023/10/16 10:33:12;;;;;;;3.10;2.77;;;9.90;99.90;;;;;;5118513;28;20245;-78
2023/10/16 10:35:43;;;;;;;2.50;2.30;;;9.90;99.90;;;;;;5115735;28;20200;-77
2023/10/16 10:38:21;;;;;;;2.07;1.97;;;10.00;99.90;;;;;;5115798;28;20199;-78
2023/10/16 10:41:12;;;;;;;1.80;1.70;;;10.00;99.90;;;;;;5114608;28;20165;-75
2023/10/16 10:43:47;;;;;;;4.90;1.90;;;10.10;99.90;;;;;;5115206;28;20161;-77
2023/10/16 10:46:22;;;;;;;1.80;1.70;;;10.10;99.90;;;;;;5117065;28;20178;-76
2023/10/16 10:48:54;;;;;;;1.50;1.47;;;10.20;99.90;;;;;;5122118;28;20174;-77
2023/10/16 10:51:23;;;;;;;1.60;1.50;;;10.20;99.90;;;;;;5115576;28;20192;-78
2023/10/16 10:53:53;;;;;;;1.53;1.13;;;10.30;99.90;;;;;;5116236;28;20196;-78
2023/10/16 10:56:20;;;;;;;1.13;1.03;;;10.30;99.90;;;;;;5114983;28;20271;-77
2023/10/16 10:58:47;;;;;;;0.83;0.83;;;10.30;99.90;;;;;;5123725;28;20158;-77
2023/10/16 11:01:16;;;;;;;0.90;0.90;;;10.20;99.90;;;;;;5124241;28;20172;-74
2023/10/16 11:03:46;;;;;;;1.20;1.20;;;10.20;99.90;;;;;;5136325;28;20162;-77
2023/10/16 11:06:19;;;;;;;1.27;1.07;;;10.30;99.90;;;;;;5128327;28;20189;-78
2023/10/16 11:08:48;;;;;;;1.63;1.10;;;10.40;99.90;;;;;;5118785;28;20202;-78
2023/10/16 11:11:14;;;;;;;1.30;1.20;;;10.40;99.90;;;;;;5117055;28;20178;-77
2023/10/16 11:13:47;;;;;;;1.23;1.13;;;10.30;99.90;;;;;;5114819;28;20208;-76
2023/10/16 11:16:15;;;;;;;1.20;1.10;;;10.40;99.90;;;;;;5114304;28;20556;-78
2023/10/16 11:18:55;;;;;;;1.33;1.10;;;10.40;99.90;;;;;;5096153;28;20182;-78
2023/10/16 11:21:25;;;;;;;0.80;0.80;;;10.50;99.90;;;;;;5113728;28;20252;-78
2023/10/16 11:23:55;;;;;;;1.00;1.00;;;10.50;99.90;;;;;;5102363;28;20185;-78
2023/10/16 11:26:26;;;;;;;1.03;1.03;;;10.60;99.90;;;;;;5120632;28;20168;-78
2023/10/16 11:28:54;;;;;;;1.33;1.30;;;10.60;99.90;;;;;;5116203;28;20156;-78
2023/10/16 11:31:21;;;;;;;1.07;1.07;;;10.70;99.90;;;;;;5115095;28;20657;-77
2023/10/16 11:34:01;;;;;;;0.90;0.90;;;10.80;99.90;;;;;;5127248;28;20588;-76
2023/10/16 11:36:31;;;;;;;2.47;1.80;;;10.80;99.90;;;;;;5114405;28;20212;-77
2023/10/16 11:39:06;;;;;;;1.53;1.10;;;10.90;99.90;;;;;;5096215;28;20180;-76
2023/10/16 11:41:32;;;;;;;2.20;1.30;;;10.90;99.90;;;;;;5114245;28;20164;-79
2023/10/16 11:44:13;;;;;;;1.00;1.00;;;10.80;99.90;;;;;;5122221;28;20268;-76
2023/10/16 11:46:44;;;;;;;1.40;1.30;;;10.90;99.90;;;;;;5122890;28;20169;-76
2023/10/16 11:51:57;;;;;;;1.10;1.10;;;11.00;99.90;;;;;;5114964;28;20168;-77
2023/10/16 11:54:24;;;;;;;1.33;1.33;;;11.00;99.90;;;;;;5114386;28;20197;-78
2023/10/16 11:56:55;;;;;;;1.80;1.23;;;11.00;99.10;;;;;;5113855;28;20171;-80
2023/10/16 11:59:21;;;;;;;1.00;1.00;;;11.00;99.30;;;;;;5114048;28;20166;-78
2023/10/16 12:01:51;;;;;;;1.27;1.27;;;11.00;98.10;;;;;;5113183;28;20260;-78
2023/10/16 12:04:17;;;;;;;1.30;1.20;;;11.10;98.30;;;;;;5113168;28;20192;-77
2023/10/16 12:06:49;;;;;;;1.63;1.53;;;11.10;98.30;;;;;;5113841;28;20689;-78
2023/10/16 12:09:22;;;;;;;1.90;1.30;;;11.10;97.70;;;;;;5118064;28;20217;-78
2023/10/16 12:11:50;;;;;;;1.00;1.00;;;11.10;97.70;;;;;;5120445;28;20607;-80
2023/10/16 12:14:19;;;;;;;1.27;1.23;;;11.20;97.10;;;;;;5121939;28;20169;-78
2023/10/16 12:16:46;;;;;;;1.10;1.10;;;11.20;96.70;;;;;;5120076;28;20181;-76
2023/10/16 12:19:14;;;;;;;1.07;1.07;;;11.20;97.40;;;;;;5118009;28;20471;-76
2023/10/16 12:21:41;;;;;;;1.53;0.80;;;11.20;97.60;;;;;;5117725;28;20189;-78
2023/10/16 12:24:07;;;;;;;0.93;0.80;;;11.20;96.10;;;;;;5118083;28;20184;-76
2023/10/16 12:26:34;;;;;;;1.50;0.90;;;11.30;94.70;;;;;;5119087;28;20179;-79
2023/10/16 12:29:00;;;;;;;1.00;0.97;;;11.20;95.00;;;;;;5119926;28;20173;-78
2023/10/16 12:31:26;;;;;;;1.07;1.07;;;11.20;97.20;;;;;;5120763;28;20213;-78
2023/10/16 12:33:55;;;;;;;1.40;1.30;;;11.20;97.00;;;;;;5118078;28;20269;-78
2023/10/16 12:36:23;;;;;;;1.23;1.23;;;11.20;97.40;;;;;;5118610;28;20216;-78
2023/10/16 12:38:53;;;;;;;1.20;1.20;;;11.20;98.40;;;;;;5117168;28;20175;-78
2023/10/16 12:41:19;;;;;;;6.23;2.03;;;11.30;98.20;;;;;;5117046;28;20195;-77
2023/10/16 12:43:46;;;;;;;1.23;1.17;;;11.30;98.60;;;;;;5117393;28;20170;-79
2023/10/16 12:46:12;;;;;;;1.37;1.37;;;11.30;99.00;;;;;;5117669;28;20180;-78
2023/10/16 12:48:38;;;;;;;1.30;1.20;;;11.30;98.50;;;;;;5116881;28;20190;-78
2023/10/16 12:51:07;;;;;;;3.53;2.03;;;11.30;97.90;;;;;;5116733;28;20256;-78
2023/10/16 12:53:33;;;;;;;1.73;1.63;;;11.30;98.00;;;;;;5117217;28;20203;-76
2023/10/16 12:55:58;;;;;;;1.17;1.07;;;11.30;97.20;;;;;;5116764;28;20244;-78
2023/10/16 12:58:28;;;;;;;1.73;1.30;;;11.30;98.40;;;;;;5118196;28;20642;-77
2023/10/16 13:00:57;;;;;;;1.70;1.10;;;11.20;98.20;;;;;;5119963;28;20890;-78
2023/10/16 13:03:24;;;;;;;1.50;1.30;;;11.30;98.40;;;;;;5098925;28;20177;-76
2023/10/16 13:05:52;;;;;;;1.10;1.10;;;11.40;98.90;;;;;;5098377;28;20228;-77
2023/10/16 13:08:20;;;;;;;1.00;1.00;;;11.40;98.80;;;;;;5129889;28;20167;-76
2023/10/16 13:10:51;;;;;;;1.70;1.10;;;11.30;97.50;;;;;;5117403;28;20196;-76
2023/10/16 13:13:21;;;;;;;1.60;1.23;;;11.40;98.20;;;;;;5128168;28;20166;-77
2023/10/16 13:15:51;;;;;;;1.00;1.00;;;11.40;98.00;;;;;;5101620;28;20260;-76
2023/10/16 13:18:29;;;;;;;1.07;1.07;;;11.40;98.50;;;;;;5117235;28;20167;-77
2023/10/16 13:21:15;;;;;;;0.80;0.80;;;11.40;97.30;;;;;;5115870;28;20199;-77
2023/10/16 13:23:41;;;;;;;2.00;1.90;;;11.40;96.40;;;;;;5116303;28;20211;-78
2023/10/16 13:26:09;;;;;;;1.43;1.30;;;11.40;96.10;;;;;;5115717;28;20203;-76
2023/10/16 13:28:41;;;;;;;1.33;1.23;;;11.40;97.30;;;;;;5116279;28;20201;-76
2023/10/16 13:31:08;;;;;;;1.77;1.67;;;11.50;97.90;;;;;;5116144;28;20179;-77
2023/10/16 13:33:35;;;;;;;1.20;1.20;;;11.40;97.00;;;;;;5119650;28;20198;-78
2023/10/16 13:36:04;;;;;;;2.47;1.23;;;11.40;97.40;;;;;;5101129;28;20239;-75
2023/10/16 13:38:31;;;;;;;1.00;1.00;;;11.40;98.30;;;;;;5131719;28;20191;-76
2023/10/16 13:41:06;;;;;;;0.97;0.97;;;11.50;98.60;;;;;;5100489;28;20184;-78
2023/10/16 13:43:32;;;;;;;1.10;1.00;;;11.50;98.40;;;;;;5116500;28;20154;-79
2023/10/16 13:45:58;;;;;;;1.20;1.03;;;11.40;98.40;;;;;;5115576;28;20176;-78
2023/10/16 13:48:28;;;;;;;1.20;1.20;;;11.50;98.20;;;;;;5116220;28;20177;-78
2023/10/16 13:50:54;;;;;;;1.57;1.47;;;11.50;98.70;;;;;;5115963;28;20162;-78
2023/10/16 13:53:20;;;;;;;1.70;1.43;;;11.50;98.80;;;;;;5115924;28;20197;-77
2023/10/16 13:55:52;;;;;;;1.33;1.23;;;11.50;98.40;;;;;;5116121;28;20664;-79
2023/10/16 13:58:19;;;;;;;1.33;1.33;;;11.50;98.50;;;;;;5116315;28;20150;-78
2023/10/16 14:00:47;;;;;;;1.20;1.20;;;11.50;98.60;;;;;;5116002;28;20174;-78
2023/10/16 14:05:47;;;;;;;1.37;1.27;;;11.50;99.20;;;;;;5116314;28;20177;-76
2023/10/16 14:08:17;;;;;;;1.50;1.20;;;11.50;98.90;;;;;;5117471;28;20169;-76
2023/10/16 14:10:49;;;;;;;1.23;1.23;;;11.50;99.00;;;;;;5121269;28;20173;-76
2023/10/16 14:13:20;;;;;;;1.50;1.40;;;11.50;99.40;;;;;;5122053;28;20604;-77
2023/10/16 14:15:47;;;;;;;1.60;1.50;;;11.50;99.50;;;;;;5116077;28;20234;-76
2023/10/16 14:18:15;;;;;;;1.70;1.60;;;11.50;99.90;;;;;;5115702;28;20640;-79
2023/10/16 14:20:48;;;;;;;3.13;1.60;;;11.50;99.50;;;;;;5115081;28;20600;-76
2023/10/16 14:23:15;;;;;;;5.77;1.90;;;11.50;99.90;;;;;;5115194;28;20497;-76
2023/10/16 14:25:48;;;;;;;5.20;1.60;;;11.30;99.90;;;;;;5114665;28;20186;-78
2023/10/16 14:28:27;;;;;;;6.03;1.90;;;11.40;99.90;;;;;;5119670;28;20171;-74
2023/10/16 14:30:59;;;;;;;3.37;1.40;;;11.30;99.90;;;;;;5117384;28;20174;-79
2023/10/16 14:33:30;;;;;;;1.50;1.40;;;11.20;99.90;;;;;;5115711;28;20168;-79
2023/10/16 14:36:00;;;;;;;3.97;1.37;;;11.20;99.90;;;;;;5115642;28;20271;-78
2023/10/16 14:38:27;;;;;;;4.47;1.20;;;11.20;99.90;;;;;;5115137;28;20235;-78
2023/10/16 14:41:00;;;;;;;3.77;2.13;;;11.20;99.90;;;;;;5115028;28;20193;-78
2023/10/16 14:43:29;;;;;;;1.37;1.27;;;11.20;99.90;;;;;;5119471;28;20134;-77
2023/10/16 14:45:55;;;;;;;1.30;1.20;;;11.20;99.90;;;;;;5125506;28;20173;-76
2023/10/16 14:48:26;;;;;;;1.80;1.50;;;11.20;99.90;;;;;;5118894;28;20176;-79
2023/10/16 14:50:52;;;;;;;1.40;1.37;;;10.10;99.90;;;;;;5117045;28;20172;-76
2023/10/16 14:53:19;;;;;;;2.30;1.47;;;11.20;99.90;;;;;;5115479;28;20198;-76
2023/10/16 14:55:49;;;;;;;2.23;1.97;;;11.20;99.90;;;;;;5114301;28;20685;-77
2023/10/16 14:58:16;;;;;;;1.37;1.37;;;11.20;99.90;;;;;;5096111;28;20294;-75
2023/10/16 15:00:42;;;;;;;1.73;1.63;;;11.20;99.90;;;;;;5114598;28;20632;-77
2023/10/16 15:03:13;;;;;;;1.27;1.27;;;11.10;99.90;;;;;;5114547;28;20178;-77
2023/10/16 15:05:46;;;;;;;1.30;1.30;;;11.10;99.90;;;;;;5100326;28;20181;-76
2023/10/16 15:08:13;;;;;;;1.43;1.13;;;11.10;99.90;;;;;;5115588;28;20196;-78
2023/10/16 15:10:43;;;;;;;1.50;1.50;;;11.10;99.90;;;;;;5114419;28;20172;-77
2023/10/16 15:13:14;;;;;;;2.07;1.47;;;11.00;99.90;;;;;;5114158;28;20177;-79
2023/10/16 15:15:44;;;;;;;1.20;1.20;;;11.00;99.90;;;;;;5113793;28;20556;-78